Time;durP1;ratioP1;P1;durP2;ratioP2;P2;SDS_P1;SDS_P2;PMS_P1;PMS_P2;Temp;Humidity;BMP_temperature;BMP_pressure;BME280_temperature;BME280_humidity;BME280_pressure;Samples;Min_cycle;Max_cycle;Signal;HPM_P1;HPM_P2
2022/03/03 00:01:56;;;;;;;20.40;13.68;;;;;;;3.87;53.76;101781.69;3592932;40;20060;-63
2022/03/03 00:04:22;;;;;;;24.42;13.85;;;;;;;3.84;53.24;101779.06;3594007;40;20052;-64
2022/03/03 00:06:48;;;;;;;21.20;14.07;;;;;;;3.56;52.92;101732.63;3583309;40;20044;-64
2022/03/03 00:09:13;;;;;;;22.75;14.18;;;;;;;3.76;52.99;101772.13;3582364;40;20056;-64
2022/03/03 00:11:39;;;;;;;21.27;13.55;;;;;;;3.75;53.38;101765.94;3592956;40;20287;-63
2022/03/03 00:14:05;;;;;;;22.25;13.50;;;;;;;3.70;53.87;101768.66;3592701;40;20342;-64
2022/03/03 00:16:31;;;;;;;20.73;13.75;;;;;;;3.67;53.79;101774.03;3593556;40;20047;-64
2022/03/03 00:18:57;;;;;;;19.80;13.98;;;;;;;3.55;54.14;101749.47;3592475;40;20428;-62
2022/03/03 00:21:23;;;;;;;23.33;14.20;;;;;;;3.49;53.56;101748.69;3591080;40;20052;-63
2022/03/03 00:23:48;;;;;;;20.27;13.70;;;;;;;3.63;52.96;101760.84;3588068;40;20088;-63
2022/03/03 00:26:14;;;;;;;23.73;14.60;;;;;;;3.63;54.35;101758.19;3591798;40;20066;-63
2022/03/03 00:28:40;;;;;;;22.42;14.18;;;;;;;3.44;54.50;101742.56;3590895;40;20054;-62
2022/03/03 00:31:07;;;;;;;22.95;13.85;;;;;;;3.65;54.46;101765.22;3591459;40;20044;-63
2022/03/03 00:33:32;;;;;;;22.67;13.63;;;;;;;3.63;53.34;101758.19;3589640;40;20040;-62
2022/03/03 00:35:59;;;;;;;21.10;13.73;;;;;;;3.62;54.19;101770.59;3592449;40;20105;-63
2022/03/03 00:38:24;;;;;;;25.83;14.77;;;;;;;3.31;54.48;101717.09;3591341;40;20040;-63
2022/03/03 00:40:50;;;;;;;19.35;13.77;;;;;;;3.58;53.77;101768.00;3592618;40;20054;-63
2022/03/03 00:43:15;;;;;;;20.55;13.98;;;;;;;3.51;54.08;101750.41;3582407;40;20379;-62
2022/03/03 00:45:41;;;;;;;22.58;13.27;;;;;;;3.21;53.93;101695.13;3593951;40;20057;-62
2022/03/03 00:48:07;;;;;;;20.20;13.30;;;;;;;3.62;53.66;101759.09;3592059;40;20417;-63
2022/03/03 00:50:33;;;;;;;21.10;13.82;;;;;;;3.48;52.84;101728.28;3591908;40;20128;-63
2022/03/03 00:52:59;;;;;;;19.70;13.80;;;;;;;3.70;53.08;101766.00;3591735;40;20095;-63
2022/03/03 00:55:25;;;;;;;21.58;14.05;;;;;;;3.71;53.00;101758.91;3590963;40;20060;-63
2022/03/03 00:57:51;;;;;;;21.48;14.82;;;;;;;3.67;53.56;101758.09;3591363;40;20382;-64
2022/03/03 01:00:18;;;;;;;24.05;14.32;;;;;;;3.68;53.81;101753.66;3591009;40;20092;-63
2022/03/03 01:02:45;;;;;;;22.80;14.25;;;;;;;3.63;53.93;101755.53;3590641;40;20140;-63
2022/03/03 01:05:11;;;;;;;23.52;14.63;;;;;;;3.57;53.69;101751.19;3591107;40;20056;-63
2022/03/03 01:07:37;;;;;;;19.35;13.88;;;;;;;3.56;53.82;101748.56;3590763;40;20125;-63
2022/03/03 01:10:05;;;;;;;22.63;14.70;;;;;;;3.52;54.05;101760.16;3590896;40;20055;-63
2022/03/03 01:12:30;;;;;;;24.02;14.85;;;;;;;3.47;54.82;101753.13;3591910;40;20052;-62
2022/03/03 01:14:56;;;;;;;20.13;14.35;;;;;;;3.42;54.79;101757.63;3591725;40;20409;-62
2022/03/03 01:17:22;;;;;;;22.48;14.38;;;;;;;3.27;56.89;101749.97;3590852;40;20060;-62
2022/03/03 01:19:48;;;;;;;24.40;14.98;;;;;;;3.34;55.57;101756.03;3591822;40;20068;-63
2022/03/03 01:22:16;;;;;;;20.80;14.15;;;;;;;3.31;55.33;101754.31;3590154;40;20056;-63
2022/03/03 01:24:48;;;;;;;21.55;14.98;;;;;;;3.30;55.59;101747.25;3590968;40;20101;-62
2022/03/03 01:27:13;;;;;;;24.48;14.80;;;;;;;3.26;56.32;101745.53;3590589;40;20434;-62
2022/03/03 01:29:39;;;;;;;24.15;15.40;;;;;;;3.21;56.11;101742.09;3590184;40;20051;-62
2022/03/03 01:32:07;;;;;;;22.05;14.70;;;;;;;3.18;55.63;101752.75;3592030;40;20093;-65
2022/03/03 01:34:33;;;;;;;21.30;14.05;;;;;;;3.16;56.27;101751.91;3589487;40;20060;-63
2022/03/03 01:36:59;;;;;;;22.05;15.00;;;;;;;3.04;55.99;101734.38;3591483;40;20058;-63
2022/03/03 01:39:25;;;;;;;23.85;14.90;;;;;;;3.02;56.00;101731.75;3590596;40;20056;-62
2022/03/03 01:41:51;;;;;;;21.17;14.23;;;;;;;3.04;56.10;101737.03;3590543;40;20129;-63
2022/03/03 01:44:17;;;;;;;22.17;15.15;;;;;;;2.90;56.08;101707.16;3591305;39;20051;-63
2022/03/03 01:46:55;;;;;;;23.33;15.23;;;;;;;3.01;57.05;101729.09;3591237;40;20294;-62
2022/03/03 01:49:24;;;;;;;26.95;17.30;;;;;;;2.96;58.20;101721.22;3591297;40;20059;-64
2022/03/03 01:51:50;;;;;;;23.95;14.82;;;;;;;2.96;58.31;101720.34;3590457;40;20048;-62
2022/03/03 01:54:17;;;;;;;24.00;15.27;;;;;;;2.86;58.30;101714.31;3590557;39;20052;-63
2022/03/03 01:56:45;;;;;;;21.73;15.00;;;;;;;2.91;58.19;101717.75;3592396;40;20075;-62
2022/03/03 01:59:12;;;;;;;23.75;15.85;;;;;;;2.86;58.57;101716.97;3592612;40;20048;-62
2022/03/03 02:01:37;;;;;;;23.65;14.75;;;;;;;2.46;58.50;101640.59;3594277;40;20043;-62
2022/03/03 02:04:07;;;;;;;27.35;15.10;;;;;;;2.93;58.53;101715.09;3593252;39;20325;-63
2022/03/03 02:06:34;;;;;;;23.45;15.48;;;;;;;2.93;59.00;101715.97;3590423;40;20283;-63
2022/03/03 02:08:59;;;;;;;25.25;15.60;;;;;;;2.85;57.89;101688.63;3594140;40;20051;-63
2022/03/03 02:11:26;;;;;;;20.15;13.82;;;;;;;2.94;58.80;101698.25;3592046;40;20129;-63
2022/03/03 02:13:52;;;;;;;21.98;15.60;;;;;;;2.95;59.01;101698.25;3592411;40;20060;-63
2022/03/03 02:16:18;;;;;;;23.10;14.93;;;;;;;2.94;58.19;101698.25;3591491;40;20059;-63
2022/03/03 02:18:44;;;;;;;21.10;14.90;;;;;;;2.90;59.13;101692.13;3592980;40;20075;-63
2022/03/03 02:21:15;;;;;;;23.05;15.40;;;;;;;2.94;58.37;101699.13;3591808;40;20056;-63
2022/03/03 02:23:43;;;;;;;22.10;15.23;;;;;;;2.93;59.51;101700.03;3578198;40;20052;-63
2022/03/03 02:26:20;;;;;;;25.23;15.88;;;;;;;2.54;58.81;101624.56;3592453;40;20063;-62
2022/03/03 02:28:51;;;;;;;26.00;15.43;;;;;;;2.89;57.57;101684.19;3592259;40;20052;-63
2022/03/03 02:31:18;;;;;;;24.13;14.90;;;;;;;2.87;57.56;101684.19;3592071;40;20047;-63
2022/03/03 02:33:45;;;;;;;23.60;15.75;;;;;;;2.84;58.83;101684.25;3591864;40;20055;-63
2022/03/03 02:36:18;;;;;;;22.85;15.13;;;;;;;2.78;58.27;101689.66;3591939;40;20064;-63
2022/03/03 02:38:46;;;;;;;27.08;16.45;;;;;;;2.71;58.68;101682.69;3591179;40;20055;-63
2022/03/03 02:41:12;;;;;;;28.13;15.93;;;;;;;2.66;59.95;101685.41;3591542;40;20048;-63
2022/03/03 02:43:37;;;;;;;26.40;16.23;;;;;;;2.65;59.12;101688.09;3591370;40;20058;-63
2022/03/03 02:46:06;;;;;;;25.90;16.77;;;;;;;2.60;59.26;101684.63;3592262;40;20083;-63
2022/03/03 02:48:31;;;;;;;22.40;15.27;;;;;;;2.50;59.77;101676.78;3592319;40;20117;-63
2022/03/03 02:50:57;;;;;;;23.80;15.60;;;;;;;2.53;58.79;101687.34;3592073;40;20048;-63
2022/03/03 02:53:23;;;;;;;28.42;16.95;;;;;;;2.17;59.05;101627.75;3591290;40;20072;-63
2022/03/03 02:55:48;;;;;;;23.63;16.23;;;;;;;2.38;60.05;101671.69;3626756;22;20064;-62
2022/03/03 02:58:14;;;;;;;27.33;17.08;;;;;;;2.36;59.68;101669.94;3592170;40;20056;-62
2022/03/03 03:00:43;;;;;;;25.58;15.93;;;;;;;2.33;59.87;101665.56;3590438;40;20390;-62
2022/03/03 03:03:09;;;;;;;26.33;16.00;;;;;;;2.33;59.25;101676.16;3592701;40;20067;-63
2022/03/03 03:05:36;;;;;;;24.05;16.27;;;;;;;2.22;59.47;101656.84;3590181;40;20139;-63
2022/03/03 03:08:04;;;;;;;23.75;15.82;;;;;;;2.19;59.08;101663.13;3590699;40;20101;-63
2022/03/03 03:10:30;;;;;;;24.80;15.55;;;;;;;2.23;59.94;101678.06;3592453;40;20070;-63
2022/03/03 03:12:56;;;;;;;24.23;15.68;;;;;;;2.18;59.54;101677.25;3592802;40;20072;-63
2022/03/03 03:15:22;;;;;;;25.90;16.65;;;;;;;2.16;59.22;101679.06;3592528;40;20394;-63
2022/03/03 03:17:48;;;;;;;26.33;16.58;;;;;;;2.15;59.81;101676.41;3593111;40;20060;-63
2022/03/03 03:20:14;;;;;;;24.23;15.63;;;;;;;2.07;59.85;101668.56;3591932;40;20048;-63
2022/03/03 03:22:40;;;;;;;25.95;15.93;;;;;;;2.00;59.88;101662.47;3590816;40;20047;-63
2022/03/03 03:25:12;;;;;;;25.55;16.33;;;;;;;2.05;61.11;101670.34;3592033;40;20587;-63
2022/03/03 03:27:41;;;;;;;25.63;16.13;;;;;;;1.97;60.00;101656.34;3593643;40;20059;-63
2022/03/03 03:30:11;;;;;;;27.15;16.60;;;;;;;1.97;60.84;101651.91;3591504;40;20059;-63
2022/03/03 03:32:37;;;;;;;22.88;15.65;;;;;;;2.05;60.71;101660.63;3589905;40;20310;-63
2022/03/03 03:35:05;;;;;;;23.95;15.95;;;;;;;1.92;60.87;101627.22;3592293;40;20066;-64
2022/03/03 03:37:32;;;;;;;23.63;15.77;;;;;;;1.99;60.05;101634.19;3590036;40;20088;-63
2022/03/03 03:39:57;;;;;;;26.90;16.70;;;;;;;1.93;61.07;101610.41;3589935;40;20130;-61
2022/03/03 03:42:23;;;;;;;26.60;17.85;;;;;;;2.06;61.20;101637.63;3589920;40;20052;-62
2022/03/03 03:44:48;;;;;;;24.50;16.70;;;;;;;2.10;60.33;101647.31;3592914;40;20298;-63
2022/03/03 03:47:14;;;;;;;24.00;15.43;;;;;;;1.95;59.98;101627.19;3591359;40;20055;-63
2022/03/03 03:49:40;;;;;;;23.23;15.45;;;;;;;2.14;59.87;101645.50;3594207;40;20047;-63
2022/03/03 03:52:06;;;;;;;22.83;14.77;;;;;;;1.97;59.71;101609.50;3594364;40;20048;-62
2022/03/03 03:54:32;;;;;;;24.35;15.90;;;;;;;2.15;59.56;101632.19;3591828;40;20279;-63
2022/03/03 03:56:58;;;;;;;23.52;16.05;;;;;;;2.23;59.25;101640.94;3593365;40;20120;-63
2022/03/03 03:59:24;;;;;;;23.52;15.23;;;;;;;2.19;59.91;101625.97;3594564;40;20044;-63
2022/03/03 04:01:49;;;;;;;24.85;16.08;;;;;;;2.24;59.10;101636.50;3592835;40;20087;-64
2022/03/03 04:04:16;;;;;;;25.80;16.27;;;;;;;2.13;58.76;101609.28;3591782;40;20055;-63
2022/03/03 04:06:41;;;;;;;30.10;16.25;;;;;;;2.25;58.53;101640.91;3591106;40;20091;-62
2022/03/03 04:09:07;;;;;;;24.08;15.75;;;;;;;2.23;58.90;101642.72;3592992;40;20055;-65
2022/03/03 04:11:33;;;;;;;27.35;16.52;;;;;;;2.21;59.50;101644.50;3589848;40;20059;-62
2022/03/03 04:13:58;;;;;;;26.02;16.60;;;;;;;2.16;60.87;101649.00;3593478;40;20068;-62
2022/03/03 04:16:25;;;;;;;27.50;16.58;;;;;;;2.09;60.93;101646.44;3592984;40;20127;-63
2022/03/03 04:18:51;;;;;;;28.13;17.10;;;;;;;1.94;61.69;101630.75;3592625;40;20075;-63
2022/03/03 04:21:17;;;;;;;26.25;16.60;;;;;;;1.93;61.27;101634.28;3572097;40;20061;-63
2022/03/03 04:23:43;;;;;;;26.55;16.30;;;;;;;1.83;61.39;101627.34;3591456;40;20050;-63
2022/03/03 04:26:09;;;;;;;23.25;16.10;;;;;;;1.36;62.50;101549.31;3592745;40;20387;-63
2022/03/03 04:28:36;;;;;;;26.58;16.05;;;;;;;1.79;61.15;101623.84;3589269;40;20082;-65
2022/03/03 04:31:03;;;;;;;26.92;17.25;;;;;;;1.78;61.62;101618.59;3590698;40;20088;-64
2022/03/03 04:33:28;;;;;;;26.40;16.50;;;;;;;1.78;61.28;101613.28;3591168;40;20044;-63
2022/03/03 04:35:56;;;;;;;24.33;16.05;;;;;;;1.74;62.41;101612.41;3590814;40;20071;-63
2022/03/03 04:38:21;;;;;;;26.25;16.55;;;;;;;1.74;61.67;101607.13;3592750;40;20052;-63
2022/03/03 04:40:47;;;;;;;25.27;16.05;;;;;;;1.74;62.09;101600.94;3587996;40;20081;-63
2022/03/03 04:43:13;;;;;;;24.83;15.80;;;;;;;1.70;62.32;101605.41;3591806;40;20055;-64
2022/03/03 04:45:38;;;;;;;25.35;16.75;;;;;;;1.69;61.30;101601.03;3576781;40;20047;-63
2022/03/03 04:48:04;;;;;;;22.77;15.57;;;;;;;1.70;62.40;101604.53;3591303;40;20056;-63
2022/03/03 04:50:30;;;;;;;25.65;17.17;;;;;;;1.70;62.62;101601.91;3583836;40;20676;-63
2022/03/03 04:52:56;;;;;;;26.02;17.02;;;;;;;1.66;61.88;101597.53;3593668;40;20056;-63
2022/03/03 04:55:22;;;;;;;25.20;16.67;;;;;;;1.62;61.63;101584.31;3593601;40;20286;-63
2022/03/03 04:57:48;;;;;;;25.20;15.48;;;;;;;1.52;62.70;101573.84;3589868;40;20076;-63
2022/03/03 05:00:14;;;;;;;27.40;16.63;;;;;;;1.53;62.84;101587.09;3587037;40;20064;-64
2022/03/03 05:02:40;;;;;;;27.77;16.42;;;;;;;1.58;62.07;101606.44;3592860;40;20051;-63
2022/03/03 05:05:07;;;;;;;25.35;16.88;;;;;;;1.31;62.51;101556.47;3592016;39;20048;-63
2022/03/03 05:07:33;;;;;;;27.05;16.92;;;;;;;1.56;61.74;101597.66;3591802;40;20448;-63
2022/03/03 05:09:58;;;;;;;29.20;17.38;;;;;;;1.31;61.93;101557.31;3592841;40;20059;-63
2022/03/03 05:12:24;;;;;;;22.42;16.02;;;;;;;1.41;61.58;101579.28;3593456;40;20051;-63
2022/03/03 05:14:50;;;;;;;26.60;15.57;;;;;;;1.52;62.25;101606.53;3587073;40;20085;-63
2022/03/03 05:17:15;;;;;;;27.85;16.92;;;;;;;1.53;62.74;101608.28;3590119;40;20051;-63
2022/03/03 05:19:41;;;;;;;27.70;16.00;;;;;;;1.46;62.51;101598.66;3587368;40;20398;-63
2022/03/03 05:22:07;;;;;;;25.80;16.73;;;;;;;1.44;61.52;101597.78;3585857;40;20135;-63
2022/03/03 05:24:32;;;;;;;25.13;16.73;;;;;;;1.45;62.32;101599.53;3589500;40;20055;-63
2022/03/03 05:26:58;;;;;;;33.17;17.38;;;;;;;1.29;62.38;101576.78;3588754;40;20295;-64
2022/03/03 05:29:26;;;;;;;30.83;16.80;;;;;;;1.47;61.45;101608.34;3591424;40;20056;-64
2022/03/03 05:31:52;;;;;;;26.85;16.80;;;;;;;1.16;62.91;101555.72;3592137;40;20071;-63
2022/03/03 05:34:18;;;;;;;29.48;17.00;;;;;;;1.36;61.65;101594.34;3586541;40;20052;-63
2022/03/03 05:36:43;;;;;;;24.33;17.20;;;;;;;1.39;62.85;101610.19;3592955;40;20060;-63
2022/03/03 05:39:09;;;;;;;27.15;16.58;;;;;;;1.32;62.92;101603.22;3587737;40;20068;-64
2022/03/03 05:41:35;;;;;;;25.83;16.58;;;;;;;1.35;62.61;101609.34;3594473;40;20583;-63
2022/03/03 05:44:01;;;;;;;29.05;18.52;;;;;;;1.37;61.15;101615.53;3592122;39;20083;-64
2022/03/03 05:46:28;;;;;;;27.98;16.30;;;;;;;1.32;62.14;101613.81;3593401;40;20410;-64
2022/03/03 05:48:53;;;;;;;26.65;16.67;;;;;;;1.29;61.09;101621.78;3586657;40;20060;-64
2022/03/03 05:51:20;;;;;;;23.33;15.48;;;;;;;1.32;62.10;101629.72;3590338;40;20067;-63
2022/03/03 05:53:46;;;;;;;26.95;15.00;;;;;;;1.26;61.56;101613.88;3594367;40;20044;-64
2022/03/03 05:56:17;;;;;;;25.40;15.60;;;;;;;1.29;62.32;101619.16;3590764;40;20092;-63
2022/03/03 05:58:48;;;;;;;25.20;15.68;;;;;;;1.28;61.81;101620.06;3586072;40;20362;-63
2022/03/03 06:01:16;;;;;;;23.52;15.02;;;;;;;1.25;62.70;101620.97;3596485;40;20060;-64
2022/03/03 06:03:46;;;;;;;24.75;15.18;;;;;;;1.24;62.47;101619.22;3589988;40;20394;-63
2022/03/03 06:06:25;;;;;;;25.85;16.25;;;;;;;1.23;61.43;101613.91;3592092;40;20052;-63
2022/03/03 06:09:04;;;;;;;22.13;14.93;;;;;;;1.23;62.04;101617.44;3594553;40;20059;-63
2022/03/03 06:11:31;;;;;;;24.30;15.68;;;;;;;1.04;62.00;101582.31;3587441;40;20044;-63
2022/03/03 06:14:07;;;;;;;24.83;14.88;;;;;;;1.13;61.36;101592.81;3585663;39;20044;-63
2022/03/03 06:16:35;;;;;;;24.52;15.60;;;;;;;1.22;61.76;101613.03;3576107;40;20059;-63
2022/03/03 06:19:03;;;;;;;21.52;14.88;;;;;;;1.16;61.94;101600.75;3590913;40;20381;-63
2022/03/03 06:21:29;;;;;;;23.60;14.98;;;;;;;1.14;62.73;101591.06;3591313;40;20052;-63
2022/03/03 06:23:55;;;;;;;24.20;15.90;;;;;;;1.22;61.55;101606.88;3590236;40;20072;-63
2022/03/03 06:26:22;;;;;;;24.35;14.65;;;;;;;1.14;62.87;101594.59;3591540;40;20056;-63
2022/03/03 06:28:48;;;;;;;27.35;15.98;;;;;;;1.09;63.27;101587.59;3593874;40;20106;-63
2022/03/03 06:31:15;;;;;;;25.55;16.17;;;;;;;1.13;61.92;101603.41;3591877;40;20051;-62
2022/03/03 06:33:41;;;;;;;33.65;17.33;;;;;;;0.90;62.24;101568.38;3593988;40;20617;-62
2022/03/03 06:36:08;;;;;;;25.15;15.85;;;;;;;1.19;63.03;101622.78;3590755;40;20067;-62
2022/03/03 06:38:35;;;;;;;25.95;16.25;;;;;;;1.19;61.91;101617.50;3590955;40;20051;-62
2022/03/03 06:41:02;;;;;;;25.42;15.57;;;;;;;1.19;62.14;101613.06;3590387;40;20091;-62
2022/03/03 06:43:29;;;;;;;26.75;16.20;;;;;;;1.23;63.08;101619.22;3590731;40;20057;-62
2022/03/03 06:45:59;;;;;;;26.75;15.30;;;;;;;1.27;62.20;101618.28;3593578;39;20055;-62
2022/03/03 06:48:25;;;;;;;24.42;15.35;;;;;;;1.31;62.22;101622.66;3594865;40;20066;-62
2022/03/03 06:50:55;;;;;;;22.75;15.68;;;;;;;1.36;62.18;101626.13;3593167;40;20048;-64
2022/03/03 06:53:28;;;;;;;23.73;15.57;;;;;;;1.44;60.95;101620.75;3594038;40;20459;-62
2022/03/03 06:56:12;;;;;;;25.40;15.13;;;;;;;1.51;60.86;101617.13;3593030;39;20351;-63
2022/03/03 06:58:39;;;;;;;22.13;15.18;;;;;;;1.62;60.98;101629.38;3590454;40;20054;-62
2022/03/03 07:01:12;;;;;;;26.63;15.38;;;;;;;1.67;60.09;101616.06;3592242;40;20087;-62
2022/03/03 07:03:42;;;;;;;24.15;14.75;;;;;;;1.71;60.15;101598.34;3589009;40;20044;-62
2022/03/03 07:06:09;;;;;;;25.02;14.75;;;;;;;2.11;60.08;101626.97;3591752;40;20052;-63
2022/03/03 07:08:34;;;;;;;22.95;15.20;;;;;;;2.40;58.23;101632.72;3592724;40;20048;-62
2022/03/03 07:11:01;;;;;;;22.95;15.02;;;;;;;2.52;57.08;101595.38;3589454;40;20051;-60
2022/03/03 07:13:27;;;;;;;22.55;15.65;;;;;;;2.85;56.26;101616.94;3592980;40;20142;-62
2022/03/03 07:16:34;;;;;;;20.70;15.07;;;;;;;3.11;56.01;101637.75;3593280;39;20153;-62
2022/03/03 07:19:04;;;;;;;21.65;14.32;;;;;;;3.20;55.01;101639.34;3591653;40;20129;-63
2022/03/03 07:21:48;;;;;;;24.15;15.00;;;;;;;3.35;55.03;101633.75;3592098;40;20044;-62
2022/03/03 07:24:29;;;;;;;25.65;14.85;;;;;;;3.08;54.45;101554.59;3587312;40;20056;-62
2022/03/03 07:27:07;;;;;;;24.25;15.07;;;;;;;3.68;53.19;101626.91;3594532;40;20068;-62
2022/03/03 07:29:34;;;;;;;23.77;15.48;;;;;;;3.87;53.05;101635.38;3589067;40;20059;-62
2022/03/03 07:32:07;;;;;;;25.48;14.30;;;;;;;3.97;52.44;101638.72;3585707;40;20093;-62
2022/03/03 07:34:38;;;;;;;22.17;14.23;;;;;;;4.08;52.57;101641.16;3578097;40;20052;-62
2022/03/03 07:37:12;;;;;;;22.42;14.18;;;;;;;4.15;50.90;101637.44;3576017;40;20140;-63
2022/03/03 07:39:45;;;;;;;21.70;14.52;;;;;;;4.35;51.50;101637.88;3592963;40;20059;-61
2022/03/03 07:42:17;;;;;;;23.15;14.43;;;;;;;4.61;51.00;101644.38;3580329;40;20067;-62
2022/03/03 07:44:45;;;;;;;26.23;14.23;;;;;;;4.86;49.48;101647.31;3590176;40;20117;-60
2022/03/03 07:47:11;;;;;;;22.85;14.45;;;;;;;5.16;50.03;101640.31;3588627;40;20056;-61
2022/03/03 07:49:40;;;;;;;21.80;14.07;;;;;;;5.46;48.47;101643.09;3587576;40;20446;-61
2022/03/03 07:52:08;;;;;;;23.83;14.40;;;;;;;5.61;47.74;101620.44;3587891;40;20052;-61
2022/03/03 07:54:34;;;;;;;23.60;14.57;;;;;;;5.94;46.64;101631.97;3586552;40;20384;-61
2022/03/03 07:57:02;;;;;;;25.90;15.25;;;;;;;6.22;46.75;101640.03;3589362;40;20368;-61
2022/03/03 07:59:35;;;;;;;22.83;14.38;;;;;;;6.53;45.19;101644.38;3586313;40;20126;-61
2022/03/03 08:02:05;;;;;;;24.77;15.40;;;;;;;6.74;45.14;101639.22;3591485;40;20056;-61
2022/03/03 08:04:33;;;;;;;21.42;14.45;;;;;;;7.00;44.79;101639.28;3588076;40;20106;-61
2022/03/03 08:07:09;;;;;;;24.70;14.60;;;;;;;7.19;44.42;101635.91;3589321;40;20414;-61
2022/03/03 08:09:39;;;;;;;20.95;13.98;;;;;;;7.50;43.57;101639.31;3578040;40;20048;-61
2022/03/03 08:12:10;;;;;;;21.30;14.07;;;;;;;7.74;42.98;101642.88;3587429;40;20087;-61
2022/03/03 08:14:36;;;;;;;21.52;14.85;;;;;;;7.87;41.56;101644.19;3592476;40;20093;-62
2022/03/03 08:17:03;;;;;;;21.20;14.00;;;;;;;8.04;41.75;101635.50;3593546;40;20056;-61
2022/03/03 08:19:30;;;;;;;19.73;13.98;;;;;;;8.25;41.85;101645.41;3590102;40;20157;-61
2022/03/03 08:21:56;;;;;;;19.17;14.20;;;;;;;7.76;39.93;101539.34;3587014;40;20054;-62
2022/03/03 08:24:24;;;;;;;22.83;14.80;;;;;;;8.54;40.73;101636.25;3587428;40;20044;-62
2022/03/03 08:26:55;;;;;;;18.40;13.25;;;;;;;8.74;40.62;101639.91;3588378;40;20392;-61
2022/03/03 08:29:22;;;;;;;21.75;14.38;;;;;;;8.75;39.66;101625.56;3590510;40;20055;-62
2022/03/03 08:31:56;;;;;;;21.23;14.13;;;;;;;8.96;40.18;101634.53;3589424;40;20334;-61
2022/03/03 08:35:10;;;;;;;20.52;14.73;;;;;;;9.18;39.89;101635.34;3589290;40;20052;-61
2022/03/03 08:37:42;;;;;;;18.45;13.63;;;;;;;9.30;39.11;101628.59;3585451;40;20060;-65
2022/03/03 08:40:13;;;;;;;20.05;13.65;;;;;;;9.31;38.90;101622.28;3585822;40;20053;-62
2022/03/03 08:42:56;;;;;;;18.77;14.30;;;;;;;9.50;37.83;101630.41;3589913;40;20043;-62
2022/03/03 08:45:23;;;;;;;20.02;13.15;;;;;;;9.52;38.48;101633.91;3588768;40;20088;-62
2022/03/03 08:48:06;;;;;;;21.98;14.15;;;;;;;9.39;37.46;101604.06;3589983;40;20303;-62
2022/03/03 08:50:36;;;;;;;22.88;13.90;;;;;;;9.66;37.52;101625.22;3588274;40;20048;-63
2022/03/03 08:53:04;;;;;;;18.88;13.70;;;;;;;9.74;36.47;101642.72;3590941;40;20048;-61
2022/03/03 08:55:32;;;;;;;20.70;13.63;;;;;;;9.72;37.06;101630.31;3620133;22;20024;-64
2022/03/03 08:57:58;;;;;;;20.45;13.65;;;;;;;9.95;36.73;101640.84;3583991;40;20047;-62
2022/03/03 09:00:25;;;;;;;20.17;14.23;;;;;;;10.09;36.04;101644.75;3585248;40;20067;-63
2022/03/03 09:02:52;;;;;;;18.40;13.55;;;;;;;10.05;35.46;101632.38;3588857;40;20048;-64
2022/03/03 09:05:19;;;;;;;20.02;13.40;;;;;;;10.14;35.97;101651.63;3581204;40;20152;-63
2022/03/03 09:07:47;;;;;;;20.10;13.35;;;;;;;10.35;36.65;101646.22;3575301;40;20053;-63
2022/03/03 09:10:14;;;;;;;17.75;13.27;;;;;;;10.57;36.16;101643.38;3577304;40;20064;-63
2022/03/03 09:12:40;;;;;;;17.77;12.40;;;;;;;10.67;34.19;101645.53;3577313;40;20406;-62
2022/03/03 09:15:08;;;;;;;23.30;13.38;;;;;;;10.87;35.14;101647.22;3579032;40;20056;-62
2022/03/03 09:17:35;;;;;;;25.63;14.55;;;;;;;10.67;33.74;101607.00;3576501;40;20068;-62
2022/03/03 09:20:05;;;;;;;16.60;12.52;;;;;;;11.08;34.26;101639.91;3574358;40;20052;-65
2022/03/03 09:22:32;;;;;;;17.15;12.95;;;;;;;11.19;34.20;101643.84;3575959;40;20048;-64
2022/03/03 09:24:59;;;;;;;17.13;12.85;;;;;;;11.30;33.80;101636.97;3577838;40;20048;-64
2022/03/03 09:27:25;;;;;;;19.98;13.65;;;;;;;11.29;32.95;101627.16;3574637;40;20057;-64
2022/03/03 09:29:52;;;;;;;19.98;13.27;;;;;;;11.35;33.12;101634.03;3573349;40;20052;-62
2022/03/03 09:32:18;;;;;;;19.55;13.80;;;;;;;11.46;32.99;101622.72;3574026;40;20056;-63
2022/03/03 09:34:47;;;;;;;19.50;13.55;;;;;;;11.60;33.15;101629.09;3574607;40;20078;-63
2022/03/03 09:37:14;;;;;;;19.95;13.43;;;;;;;11.79;33.04;101628.97;3574655;40;20085;-62
2022/03/03 09:39:39;;;;;;;20.77;12.93;;;;;;;11.88;33.01;101624.09;3576208;40;20056;-63
2022/03/03 09:42:05;;;;;;;18.02;12.52;;;;;;;11.93;32.78;101622.03;3574254;40;20075;-63
2022/03/03 09:44:31;;;;;;;19.13;12.90;;;;;;;11.99;32.98;101617.16;3576823;40;20055;-63
2022/03/03 09:46:57;;;;;;;20.15;13.27;;;;;;;11.75;32.17;101570.84;3572940;40;20066;-63
2022/03/03 09:49:23;;;;;;;18.58;12.95;;;;;;;12.11;33.07;101618.28;3575178;40;20089;-64
2022/03/03 09:51:50;;;;;;;19.23;13.00;;;;;;;12.19;32.62;101617.88;3574975;40;20322;-62
2022/03/03 09:54:17;;;;;;;16.77;12.48;;;;;;;12.19;31.84;101616.06;3575023;40;20391;-62
2022/03/03 09:56:45;;;;;;;19.13;12.95;;;;;;;12.22;31.15;101621.28;3574802;40;20130;-63
2022/03/03 09:59:12;;;;;;;17.27;11.63;;;;;;;12.30;31.97;101623.53;3573160;40;20061;-63
2022/03/03 10:01:38;;;;;;;16.92;12.15;;;;;;;12.24;31.88;101594.22;3577750;40;20045;-64
2022/03/03 10:04:20;;;;;;;20.30;13.00;;;;;;;12.56;31.16;101627.47;3573506;40;20072;-64
2022/03/03 10:06:47;;;;;;;20.00;12.30;;;;;;;12.58;31.50;101619.25;3577196;40;20052;-63
2022/03/03 10:09:16;;;;;;;16.52;12.05;;;;;;;12.59;32.03;101613.81;3577590;40;20060;-63
2022/03/03 10:11:47;;;;;;;17.55;12.18;;;;;;;12.80;32.22;101605.41;3579360;40;20579;-63
2022/03/03 10:14:24;;;;;;;15.15;11.20;;;;;;;12.98;31.11;101617.81;3573915;40;20067;-63
2022/03/03 10:16:50;;;;;;;17.13;11.50;;;;;;;13.00;30.06;101616.78;3574875;40;20052;-63
2022/03/03 10:19:16;;;;;;;16.95;12.02;;;;;;;13.04;29.83;101617.44;3579725;40;20055;-63
2022/03/03 10:21:44;;;;;;;16.95;12.00;;;;;;;13.13;30.26;101613.31;3575776;40;20053;-62
2022/03/03 10:24:27;;;;;;;18.33;12.15;;;;;;;13.22;29.83;101612.75;3578403;40;20480;-64
2022/03/03 10:27:07;;;;;;;;;;;;;;;13.31;28.76;101614.06;3579501;40;20045;-64
2022/03/03 10:29:35;;;;;;;15.70;11.38;;;;;;;13.43;29.65;101608.78;3578698;40;20004;-64
2022/03/03 10:32:02;;;;;;;16.30;11.35;;;;;;;13.64;29.71;101612.03;3578456;40;20394;-63
2022/03/03 10:34:35;;;;;;;19.10;11.77;;;;;;;13.33;29.24;101566.25;3575653;40;20047;-62
2022/03/03 10:37:09;;;;;;;18.73;13.05;;;;;;;13.61;28.55;101600.53;3577374;40;20079;-63
2022/03/03 10:39:48;;;;;;;20.70;12.23;;;;;;;13.65;28.64;101597.53;3576686;40;20049;-62
2022/03/03 10:42:21;;;;;;;18.38;11.70;;;;;;;13.83;28.70;101594.66;3574729;40;20060;-63
2022/03/03 10:44:49;;;;;;;18.03;12.43;;;;;;;13.86;28.40;101589.03;3575854;40;20312;-61
2022/03/03 10:47:18;;;;;;;16.83;11.85;;;;;;;13.94;28.77;101592.13;3577534;40;20143;-62
2022/03/03 10:49:47;;;;;;;16.35;12.00;;;;;;;14.12;28.96;101599.06;3575925;40;20056;-62
2022/03/03 10:52:19;;;;;;;14.73;11.35;;;;;;;14.34;28.77;101595.84;3575419;40;20052;-63
2022/03/03 10:55:05;;;;;;;18.48;11.27;;;;;;;14.50;27.53;101593.00;3577774;40;20051;-62
2022/03/03 10:57:44;;;;;;;15.20;11.10;;;;;;;14.55;27.42;101590.84;3575699;40;20053;-62
2022/03/03 11:00:18;;;;;;;14.13;11.48;;;;;;;14.54;27.05;101599.97;3575315;40;20384;-62
2022/03/03 11:02:48;;;;;;;15.88;11.63;;;;;;;14.54;27.08;101593.69;3578031;40;20048;-63
2022/03/03 11:05:17;;;;;;;17.13;11.40;;;;;;;14.62;27.65;101594.91;3575178;40;20384;-63
2022/03/03 11:07:46;;;;;;;16.38;11.68;;;;;;;14.73;26.36;101587.91;3578352;40;20045;-63
2022/03/03 11:10:17;;;;;;;16.40;11.40;;;;;;;14.85;26.32;101584.38;3578109;40;20401;-63
2022/03/03 11:12:44;;;;;;;15.40;10.95;;;;;;;14.82;25.65;101576.47;3579928;40;20044;-63
2022/03/03 11:15:13;;;;;;;17.15;11.30;;;;;;;14.75;26.74;101589.56;3574967;40;20058;-63
2022/03/03 11:17:40;;;;;;;14.23;10.75;;;;;;;14.92;26.32;101588.41;3575410;40;20364;-63
2022/03/03 11:20:11;;;;;;;15.82;11.25;;;;;;;14.89;26.04;101579.63;3573629;40;20473;-63
2022/03/03 11:22:38;;;;;;;14.73;10.45;;;;;;;14.99;25.23;101573.47;3579724;40;20053;-63